Time;durP1;ratioP1;P1;durP2;ratioP2;P2;SDS_P1;SDS_P2;PMS_P1;PMS_P2;Temp;Humidity;BMP_temperature;BMP_pressure;BME280_temperature;BME280_humidity;BME280_pressure;Samples;Min_cycle;Max_cycle;Signal;HPM_P1;HPM_P2
2023/09/01 00:00:42;;;;;;;10.63;5.22;;;;;;;;;;5002299;28;20033;-85
2023/09/01 00:03:27;;;;;;;13.23;5.95;;;;;;;;;;5005357;28;20034;-83
2023/09/01 00:05:54;;;;;;;12.05;5.70;;;;;;;;;;5012181;28;20413;-82
2023/09/01 00:08:20;;;;;;;14.63;6.07;;;;;;;;;;5012069;28;20691;-82
2023/09/01 00:10:46;;;;;;;11.52;5.55;;;;;;;;;;5018096;28;20035;-84
2023/09/01 00:13:12;;;;;;;9.00;5.82;;;;;;;;;;5001585;28;20027;-82
2023/09/01 00:15:39;;;;;;;10.65;5.88;;;;;;;;;;5013623;28;20018;-83
2023/09/01 00:18:05;;;;;;;16.17;6.65;;;;;;;;;;5014967;28;20634;-83
2023/09/01 00:20:34;;;;;;;13.05;6.43;;;;;;;;;;5009001;28;20092;-83
2023/09/01 00:23:02;;;;;;;12.30;6.70;;;;;;;;;;5004051;28;20050;-83
2023/09/01 00:25:28;;;;;;;9.95;5.72;;;;;;;;;;4990341;28;20061;-83
2023/09/01 00:27:54;;;;;;;13.00;6.43;;;;;;;;;;5012090;28;20030;-84
2023/09/01 00:30:20;;;;;;;14.85;6.70;;;;;;;;;;4995751;28;20066;-83
2023/09/01 00:32:47;;;;;;;11.77;7.10;;;;;;;;;;4992512;28;20030;-84
2023/09/01 00:35:13;;;;;;;15.50;7.38;;;;;;;;;;4986441;28;20406;-83
2023/09/01 00:37:40;;;;;;;16.23;8.00;;;;;;;;;;4997751;28;20043;-82
2023/09/01 00:40:07;;;;;;;16.02;7.05;;;;;;;;;;4974198;28;20038;-83
2023/09/01 00:42:33;;;;;;;14.18;7.10;;;;;;;;;;4973331;28;20177;-83
2023/09/01 00:45:01;;;;;;;9.88;6.45;;;;;;;;;;4997252;28;20034;-83
2023/09/01 00:47:27;;;;;;;11.10;7.47;;;;;;;;;;5014047;28;20033;-83
2023/09/01 00:49:54;;;;;;;14.70;7.55;;;;;;;;;;5022201;28;20025;-83
2023/09/01 00:52:20;;;;;;;13.30;7.57;;;;;;;;;;5019564;28;20029;-82
2023/09/01 00:54:48;;;;;;;20.75;7.38;;;;;;;;;;4996048;28;20038;-84
2023/09/01 00:57:14;;;;;;;15.55;7.82;;;;;;;;;;4986936;28;20015;-83
2023/09/01 00:59:41;;;;;;;11.98;7.93;;;;;;;;;;5007658;28;20523;-84
2023/09/01 01:02:07;;;;;;;15.23;7.65;;;;;;;;;;5010237;28;20022;-84
2023/09/01 01:04:33;;;;;;;11.10;7.57;;;;;;;;;;4992068;28;20108;-84
2023/09/01 01:07:18;;;;;;;13.73;8.40;;;;;;;;;;5008030;28;20081;-84
2023/09/01 01:09:44;;;;;;;10.88;7.65;;;;;;;;;;5008263;28;20097;-82
2023/09/01 01:12:14;;;;;;;11.45;7.93;;;;;;;;;;4990187;28;20039;-83
2023/09/01 01:14:47;;;;;;;16.95;8.38;;;;;;;;;;5012371;28;20076;-85
2023/09/01 01:17:15;;;;;;;13.75;7.95;;;;;;;;;;5013040;28;20056;-84
2023/09/01 01:19:48;;;;;;;17.42;8.82;;;;;;;;;;5016128;28;20064;-83
2023/09/01 01:22:14;;;;;;;18.30;8.77;;;;;;;;;;5023632;28;20030;-83
2023/09/01 01:24:41;;;;;;;16.70;8.32;;;;;;;;;;5020992;28;20129;-82
2023/09/01 01:27:08;;;;;;;12.43;8.18;;;;;;;;;;5009493;28;20046;-83
2023/09/01 01:29:34;;;;;;;23.67;9.23;;;;;;;;;;4985634;28;20022;-83
2023/09/01 01:32:00;;;;;;;11.65;7.53;;;;;;;;;;4994313;28;20037;-83
2023/09/01 01:34:47;;;;;;;13.32;8.32;;;;;;;;;;5003165;28;20047;-84
2023/09/01 01:37:13;;;;;;;16.30;9.25;;;;;;;;;;4980173;28;20054;-84
2023/09/01 01:39:41;;;;;;;18.02;9.73;;;;;;;;;;5006136;28;20026;-83
2023/09/01 01:42:10;;;;;;;15.82;9.85;;;;;;;;;;4982525;28;20216;-83
2023/09/01 01:44:39;;;;;;;14.82;10.07;;;;;;;;;;4984140;28;20034;-84
2023/09/01 01:47:07;;;;;;;19.77;11.40;;;;;;;;;;4990176;28;20125;-84
2023/09/01 01:49:34;;;;;;;18.23;11.45;;;;;;;;;;5004690;28;20525;-82
2023/09/01 01:52:00;;;;;;;17.63;9.93;;;;;;;;;;4987838;28;20066;-83
2023/09/01 01:54:27;;;;;;;22.58;11.80;;;;;;;;;;4986823;28;20458;-82
2023/09/01 01:56:53;;;;;;;16.88;11.18;;;;;;;;;;5000319;28;20101;-84
2023/09/01 01:59:20;;;;;;;20.48;11.07;;;;;;;;;;4998712;28;20035;-82
2023/09/01 02:01:47;;;;;;;24.60;12.38;;;;;;;;;;4979714;28;20052;-83
2023/09/01 02:04:14;;;;;;;20.40;11.15;;;;;;;;;;4984742;28;20406;-82
2023/09/01 02:06:40;;;;;;;18.20;11.50;;;;;;;;;;4960527;28;20149;-82
2023/09/01 02:09:09;;;;;;;21.73;11.95;;;;;;;;;;5004864;28;20057;-83
2023/09/01 02:11:39;;;;;;;23.77;12.40;;;;;;;;;;4986058;28;20054;-82
2023/09/01 02:14:08;;;;;;;18.13;10.85;;;;;;;;;;4996794;28;20034;-83
2023/09/01 02:16:35;;;;;;;21.42;12.65;;;;;;;;;;4976602;28;20042;-82
2023/09/01 02:19:01;;;;;;;19.17;12.57;;;;;;;;;;5004710;28;20030;-83
2023/09/01 02:21:27;;;;;;;21.08;12.40;;;;;;;;;;4993772;28;20042;-83
2023/09/01 02:23:53;;;;;;;22.20;13.73;;;;;;;;;;4989565;28;20053;-83
2023/09/01 02:26:20;;;;;;;25.60;13.93;;;;;;;;;;5023751;28;20072;-82
2023/09/01 02:28:47;;;;;;;25.02;15.07;;;;;;;;;;5011967;28;20102;-83
2023/09/01 02:31:14;;;;;;;27.92;17.00;;;;;;;;;;5002945;28;20030;-82
2023/09/01 02:33:41;;;;;;;35.95;17.40;;;;;;;;;;4977099;28;20038;-84
2023/09/01 02:36:24;;;;;;;25.30;16.85;;;;;;;;;;4981736;28;20038;-82
2023/09/01 02:38:50;;;;;;;31.10;17.00;;;;;;;;;;4998654;28;20077;-83
2023/09/01 02:41:16;;;;;;;34.35;15.90;;;;;;;;;;5005869;28;20089;-83
2023/09/01 02:43:42;;;;;;;28.65;17.17;;;;;;;;;;4986974;28;20037;-84
2023/09/01 02:46:08;;;;;;;26.70;15.80;;;;;;;;;;5005472;28;20061;-83
2023/09/01 02:48:35;;;;;;;29.33;16.90;;;;;;;;;;4983554;28;20096;-84
2023/09/01 02:51:04;;;;;;;35.10;18.25;;;;;;;;;;4981374;28;20052;-84
2023/09/01 02:53:34;;;;;;;30.77;17.35;;;;;;;;;;4990302;28;20196;-83
2023/09/01 02:56:00;;;;;;;30.77;16.90;;;;;;;;;;5003713;28;20453;-84
2023/09/01 02:58:26;;;;;;;28.58;16.55;;;;;;;;;;4976076;28;20043;-83
2023/09/01 03:00:53;;;;;;;31.08;17.83;;;;;;;;;;4986174;28;20030;-84
2023/09/01 03:03:20;;;;;;;27.35;18.27;;;;;;;;;;4983561;28;20186;-84
2023/09/01 03:05:46;;;;;;;34.40;18.58;;;;;;;;;;4983162;28;20096;-84
2023/09/01 03:08:13;;;;;;;30.17;18.02;;;;;;;;;;4987693;28;20093;-82
2023/09/01 03:10:39;;;;;;;32.97;17.95;;;;;;;;;;4981514;28;20049;-83
2023/09/01 03:13:05;;;;;;;31.85;17.75;;;;;;;;;;4982256;28;20041;-83
2023/09/01 03:15:32;;;;;;;36.33;18.00;;;;;;;;;;4975911;28;20334;-82
2023/09/01 03:18:17;;;;;;;32.83;18.38;;;;;;;;;;4982510;28;20044;-82
2023/09/01 03:20:44;;;;;;;31.48;18.35;;;;;;;;;;4986273;28;20472;-83
2023/09/01 03:23:10;;;;;;;31.30;17.27;;;;;;;;;;4993394;28;20124;-83
2023/09/01 03:25:36;;;;;;;30.55;18.42;;;;;;;;;;4996311;28;20290;-83
2023/09/01 03:28:02;;;;;;;34.35;18.55;;;;;;;;;;5000424;28;20153;-82
2023/09/01 03:30:29;;;;;;;34.35;17.23;;;;;;;;;;5010799;28;20030;-85
2023/09/01 03:32:55;;;;;;;32.33;17.48;;;;;;;;;;4992784;28;20026;-84
2023/09/01 03:35:21;;;;;;;29.60;17.35;;;;;;;;;;4988508;28;20030;-88
2023/09/01 03:37:47;;;;;;;34.03;18.23;;;;;;;;;;4979874;28;20044;-84
2023/09/01 03:40:14;;;;;;;28.20;17.67;;;;;;;;;;4999336;28;20041;-83
2023/09/01 03:42:40;;;;;;;38.90;17.45;;;;;;;;;;4983972;28;20100;-85
2023/09/01 03:45:07;;;;;;;35.70;18.77;;;;;;;;;;4983186;28;20104;-83
2023/09/01 03:47:33;;;;;;;29.33;17.98;;;;;;;;;;5001660;28;20034;-83
2023/09/01 03:49:59;;;;;;;30.25;18.40;;;;;;;;;;4977207;28;20026;-84
2023/09/01 03:52:26;;;;;;;32.40;17.80;;;;;;;;;;4979113;28;20752;-83
2023/09/01 03:54:52;;;;;;;31.75;16.90;;;;;;;;;;4983740;28;20052;-83
2023/09/01 03:57:19;;;;;;;29.08;16.95;;;;;;;;;;4998391;28;20034;-84
2023/09/01 03:59:47;;;;;;;30.48;17.35;;;;;;;;;;4989351;28;20099;-85
2023/09/01 04:02:13;;;;;;;34.00;16.85;;;;;;;;;;4986616;28;20022;-84
2023/09/01 04:04:40;;;;;;;28.02;17.27;;;;;;;;;;4992214;28;20034;-85
2023/09/01 04:07:06;;;;;;;32.67;17.27;;;;;;;;;;4968742;28;20041;-83
2023/09/01 04:09:33;;;;;;;30.85;18.88;;;;;;;;;;5013008;28;20057;-83
2023/09/01 04:11:59;;;;;;;30.35;16.83;;;;;;;;;;5003529;28;20042;-83
2023/09/01 04:14:26;;;;;;;28.40;17.27;;;;;;;;;;4988478;28;20140;-83
2023/09/01 04:16:52;;;;;;;24.92;16.45;;;;;;;;;;5001029;28;20030;-83
2023/09/01 04:19:18;;;;;;;32.22;17.70;;;;;;;;;;5006274;28;20041;-82
2023/09/01 04:21:45;;;;;;;41.25;17.80;;;;;;;;;;5003805;28;20043;-86
2023/09/01 04:24:11;;;;;;;31.15;17.45;;;;;;;;;;5001934;28;20058;-83
2023/09/01 04:26:37;;;;;;;39.10;16.35;;;;;;;;;;5010096;28;20038;-82
2023/09/01 04:29:03;;;;;;;32.78;16.25;;;;;;;;;;4984820;28;20038;-84
2023/09/01 04:31:32;;;;;;;32.72;16.23;;;;;;;;;;5000269;28;20145;-84
2023/09/01 04:34:00;;;;;;;30.67;16.38;;;;;;;;;;4958927;28;20023;-83
2023/09/01 04:36:26;;;;;;;32.22;16.00;;;;;;;;;;4986899;28;20034;-83
2023/09/01 04:38:53;;;;;;;48.15;27.90;;;;;;;;;;4969695;28;20034;-84
2023/09/01 04:41:19;;;;;;;31.33;16.48;;;;;;;;;;4996449;28;20045;-82
2023/09/01 04:43:46;;;;;;;27.55;16.05;;;;;;;;;;4991385;28;20052;-85
2023/09/01 04:46:13;;;;;;;30.85;15.70;;;;;;;;;;4984714;28;20034;-83
2023/09/01 04:48:41;;;;;;;26.70;16.48;;;;;;;;;;5008442;28;20038;-83
2023/09/01 04:51:07;;;;;;;33.67;16.02;;;;;;;;;;4988693;28;20100;-84
2023/09/01 04:53:33;;;;;;;26.17;15.73;;;;;;;;;;5002278;28;20037;-83
2023/09/01 04:56:00;;;;;;;29.98;16.10;;;;;;;;;;4996266;28;20034;-83
2023/09/01 04:58:26;;;;;;;28.02;15.60;;;;;;;;;;4998365;28;20088;-83
2023/09/01 05:00:53;;;;;;;26.27;14.50;;;;;;;;;;4985547;28;20045;-83
2023/09/01 05:03:19;;;;;;;33.00;15.95;;;;;;;;;;4983699;28;20567;-84
2023/09/01 05:05:46;;;;;;;30.95;16.67;;;;;;;;;;4988315;28;20081;-84
2023/09/01 05:08:32;;;;;;;38.00;16.35;;;;;;;;;;4972757;28;20365;-84
2023/09/01 05:10:58;;;;;;;34.47;16.83;;;;;;;;;;4986694;28;20113;-83
2023/09/01 05:13:26;;;;;;;29.88;16.25;;;;;;;;;;4971808;28;20027;-84
2023/09/01 05:15:53;;;;;;;29.15;16.73;;;;;;;;;;4986494;28;20039;-82
2023/09/01 05:18:19;;;;;;;30.00;14.65;;;;;;;;;;4975460;28;20105;-81
2023/09/01 05:20:50;;;;;;;33.97;16.13;;;;;;;;;;4978291;28;20039;-83
2023/09/01 05:23:16;;;;;;;24.27;15.48;;;;;;;;;;4973589;28;20117;-82
2023/09/01 05:25:43;;;;;;;33.50;16.58;;;;;;;;;;4991997;28;20107;-83
2023/09/01 05:28:10;;;;;;;30.95;14.98;;;;;;;;;;4988383;28;20034;-82
2023/09/01 05:30:39;;;;;;;31.92;14.60;;;;;;;;;;4976460;28;20018;-82
2023/09/01 05:33:05;;;;;;;26.48;14.73;;;;;;;;;;4997709;28;20030;-83
2023/09/01 05:35:31;;;;;;;28.92;14.13;;;;;;;;;;4970735;28;20023;-84
2023/09/01 05:37:58;;;;;;;29.13;14.65;;;;;;;;;;4982048;28;20034;-82
2023/09/01 05:40:24;;;;;;;27.58;13.82;;;;;;;;;;4981095;28;20034;-83
2023/09/01 05:42:50;;;;;;;22.55;14.00;;;;;;;;;;4974587;28;20248;-81
2023/09/01 05:45:17;;;;;;;25.17;13.73;;;;;;;;;;4983874;28;20038;-83
2023/09/01 05:47:44;;;;;;;28.95;15.05;;;;;;;;;;4978493;28;20058;-82
2023/09/01 05:50:10;;;;;;;26.73;14.48;;;;;;;;;;4975341;28;20038;-81
2023/09/01 05:52:36;;;;;;;30.15;14.90;;;;;;;;;;4973906;28;20121;-84
2023/09/01 05:55:02;;;;;;;29.63;15.18;;;;;;;;;;4987135;28;20047;-81
2023/09/01 05:57:29;;;;;;;24.55;15.32;;;;;;;;;;4979316;28;20034;-82
2023/09/01 05:59:55;;;;;;;25.88;15.57;;;;;;;;;;4980991;28;20054;-82
2023/09/01 06:02:22;;;;;;;29.63;14.95;;;;;;;;;;4986923;28;20053;-81
2023/09/01 06:04:48;;;;;;;24.70;15.27;;;;;;;;;;4971034;28;20034;-81
2023/09/01 06:07:14;;;;;;;26.30;15.20;;;;;;;;;;4978825;28;20045;-80
2023/09/01 06:09:40;;;;;;;21.95;15.20;;;;;;;;;;4971896;28;20117;-85
2023/09/01 06:12:07;;;;;;;27.13;14.80;;;;;;;;;;4977320;28;20137;-82
2023/09/01 06:14:33;;;;;;;29.50;15.38;;;;;;;;;;4994813;28;20062;-79
2023/09/01 06:16:59;;;;;;;25.40;14.07;;;;;;;;;;4988093;28;20092;-81
2023/09/01 06:19:25;;;;;;;25.80;15.70;;;;;;;;;;4988281;28;20054;-81
2023/09/01 06:21:53;;;;;;;22.25;14.80;;;;;;;;;;4981370;28;20120;-80
2023/09/01 06:24:19;;;;;;;23.50;14.13;;;;;;;;;;4995006;28;20034;-81
2023/09/01 06:26:45;;;;;;;27.67;14.10;;;;;;;;;;4985606;28;20109;-80
2023/09/01 06:29:12;;;;;;;29.73;13.75;;;;;;;;;;5003553;28;20034;-81
2023/09/01 06:31:38;;;;;;;23.85;13.30;;;;;;;;;;4975588;28;20034;-79
2023/09/01 06:34:04;;;;;;;30.58;14.07;;;;;;;;;;4980565;28;20043;-80
2023/09/01 06:36:30;;;;;;;29.50;13.77;;;;;;;;;;4983409;28;20061;-80
2023/09/01 06:38:57;;;;;;;29.45;13.70;;;;;;;;;;4959451;28;20070;-81
2023/09/01 06:41:23;;;;;;;21.92;12.77;;;;;;;;;;4993038;28;20031;-80
2023/09/01 06:43:49;;;;;;;24.30;14.27;;;;;;;;;;4963455;28;20110;-80
2023/09/01 06:46:15;;;;;;;19.85;12.70;;;;;;;;;;4983235;28;20062;-80
2023/09/01 06:48:43;;;;;;;26.05;13.40;;;;;;;;;;4981480;28;20038;-80
2023/09/01 06:51:09;;;;;;;28.45;13.43;;;;;;;;;;4991326;28;20408;-80
2023/09/01 06:53:35;;;;;;;24.77;12.63;;;;;;;;;;4958676;28;20034;-80
2023/09/01 06:56:02;;;;;;;20.55;11.85;;;;;;;;;;4992091;28;20053;-80
2023/09/01 06:58:28;;;;;;;24.60;12.52;;;;;;;;;;4992910;28;20049;-79
2023/09/01 07:00:54;;;;;;;22.58;12.80;;;;;;;;;;4989201;28;20532;-80
2023/09/01 07:03:20;;;;;;;21.27;12.27;;;;;;;;;;4975546;28;20049;-79
2023/09/01 07:05:57;;;;;;;19.67;12.48;;;;;;;;;;4982491;28;20039;-79
2023/09/01 07:08:25;;;;;;;19.42;11.90;;;;;;;;;;4992372;28;20535;-81
2023/09/01 07:10:51;;;;;;;23.70;11.85;;;;;;;;;;4992913;28;20054;-80
2023/09/01 07:13:17;;;;;;;28.67;12.73;;;;;;;;;;4969945;28;20058;-80
2023/09/01 07:15:50;;;;;;;22.55;11.77;;;;;;;;;;4962422;28;20178;-80
2023/09/01 07:18:16;;;;;;;16.88;10.77;;;;;;;;;;4973590;28;20073;-80
2023/09/01 07:20:43;;;;;;;22.33;12.10;;;;;;;;;;4987104;28;20508;-79
2023/09/01 07:23:10;;;;;;;19.20;11.50;;;;;;;;;;4988499;28;20037;-81
2023/09/01 07:25:36;;;;;;;19.85;11.10;;;;;;;;;;4986610;28;20085;-80
2023/09/01 07:28:02;;;;;;;21.00;11.57;;;;;;;;;;4986569;28;20034;-79
2023/09/01 07:30:32;;;;;;;24.08;12.05;;;;;;;;;;4985099;28;20035;-77
2023/09/01 07:32:58;;;;;;;23.20;13.18;;;;;;;;;;4988648;28;20031;-80
2023/09/01 07:35:24;;;;;;;21.40;11.48;;;;;;;;;;5001363;28;20042;-79
2023/09/01 07:37:52;;;;;;;22.40;11.70;;;;;;;;;;4993401;28;20088;-80
2023/09/01 07:40:18;;;;;;;18.63;11.88;;;;;;;;;;4983740;28;20029;-81
2023/09/01 07:42:44;;;;;;;24.80;11.85;;;;;;;;;;4975033;28;20053;-81
2023/09/01 07:45:10;;;;;;;21.75;11.27;;;;;;;;;;4987178;28;20264;-78
2023/09/01 07:47:36;;;;;;;23.13;11.57;;;;;;;;;;4957322;28;20035;-80
2023/09/01 07:50:03;;;;;;;20.70;12.68;;;;;;;;;;4979505;28;20041;-79
2023/09/01 07:52:29;;;;;;;25.55;11.20;;;;;;;;;;4972763;28;20501;-80
2023/09/01 07:54:55;;;;;;;19.73;10.88;;;;;;;;;;4963860;28;20348;-79
2023/09/01 07:57:21;;;;;;;19.25;10.35;;;;;;;;;;4957894;28;20124;-80
2023/09/01 07:59:47;;;;;;;23.10;11.30;;;;;;;;;;4987843;28;20034;-80
2023/09/01 08:02:14;;;;;;;20.92;10.65;;;;;;;;;;4950616;28;20038;-81
2023/09/01 08:04:41;;;;;;;20.33;10.50;;;;;;;;;;4971853;28;20499;-81
2023/09/01 08:07:07;;;;;;;19.17;10.10;;;;;;;;;;4977746;28;20042;-80
2023/09/01 08:09:34;;;;;;;22.45;11.15;;;;;;;;;;4974310;28;20034;-80
2023/09/01 08:12:00;;;;;;;20.38;11.70;;;;;;;;;;4982120;28;20035;-81
2023/09/01 08:14:26;;;;;;;21.48;10.73;;;;;;;;;;4990338;28;20034;-80
2023/09/01 08:16:52;;;;;;;23.15;11.32;;;;;;;;;;4944614;28;20034;-80
2023/09/01 08:19:18;;;;;;;20.42;11.55;;;;;;;;;;4982116;28;20113;-82
2023/09/01 08:21:46;;;;;;;17.30;11.10;;;;;;;;;;4970529;28;20125;-82
2023/09/01 08:24:12;;;;;;;19.67;10.80;;;;;;;;;;4989427;28;20403;-81
2023/09/01 08:26:38;;;;;;;19.98;10.68;;;;;;;;;;4995024;28;20069;-81
2023/09/01 08:29:04;;;;;;;20.08;10.35;;;;;;;;;;4971327;28;20039;-83
2023/09/01 08:31:32;;;;;;;15.20;10.20;;;;;;;;;;4993769;28;20034;-82
2023/09/01 08:33:58;;;;;;;23.55;11.48;;;;;;;;;;4997266;28;20089;-82
2023/09/01 08:36:26;;;;;;;18.27;10.23;;;;;;;;;;4995824;28;20040;-82
2023/09/01 08:38:52;;;;;;;15.23;10.65;;;;;;;;;;4993759;28;20015;-81
2023/09/01 08:41:18;;;;;;;19.92;10.68;;;;;;;;;;4978671;28;20058;-82
2023/09/01 08:43:47;;;;;;;16.70;9.75;;;;;;;;;;4997988;28;20447;-82
2023/09/01 08:46:16;;;;;;;18.70;10.80;;;;;;;;;;5000448;28;20070;-81
2023/09/01 08:48:42;;;;;;;27.00;11.32;;;;;;;;;;4980921;28;20029;-81
2023/09/01 08:51:14;;;;;;;18.48;10.75;;;;;;;;;;4999592;28;20069;-81
2023/09/01 08:53:41;;;;;;;18.65;10.55;;;;;;;;;;4997749;28;20044;-80
2023/09/01 08:56:08;;;;;;;22.83;10.23;;;;;;;;;;4999821;28;20042;-80
2023/09/01 08:58:34;;;;;;;19.60;10.93;;;;;;;;;;5008075;28;20035;-80
2023/09/01 09:01:00;;;;;;;17.75;10.30;;;;;;;;;;5004629;28;20030;-80
2023/09/01 09:03:27;;;;;;;17.73;9.23;;;;;;;;;;4996073;28;20042;-82
2023/09/01 09:05:53;;;;;;;18.02;10.50;;;;;;;;;;5003855;28;20066;-81
2023/09/01 09:08:20;;;;;;;18.45;10.85;;;;;;;;;;4999663;28;20057;-80
2023/09/01 09:10:46;;;;;;;19.35;10.15;;;;;;;;;;5001507;28;20487;-80
2023/09/01 09:13:23;;;;;;;19.48;10.48;;;;;;;;;;4998953;28;20046;-80
2023/09/01 09:16:05;;;;;;;19.30;10.05;;;;;;;;;;5006909;28;20100;-81
2023/09/01 09:18:33;;;;;;;22.10;10.15;;;;;;;;;;4975075;28;20156;-79
2023/09/01 09:20:59;;;;;;;20.33;11.20;;;;;;;;;;4982968;28;20038;-80
2023/09/01 09:23:43;;;;;;;17.25;10.23;;;;;;;;;;4996347;28;20093;-80
2023/09/01 09:26:09;;;;;;;18.10;11.20;;;;;;;;;;4975376;28;20038;-79
2023/09/01 09:28:35;;;;;;;21.65;12.43;;;;;;;;;;4981426;28;20133;-80
2023/09/01 09:31:02;;;;;;;14.35;10.80;;;;;;;;;;4997345;28;20083;-82
2023/09/01 09:33:30;;;;;;;20.75;11.40;;;;;;;;;;5003250;28;20050;-80
2023/09/01 09:35:56;;;;;;;16.45;10.88;;;;;;;;;;4997019;28;20044;-80
2023/09/01 09:38:22;;;;;;;23.00;11.25;;;;;;;;;;5009946;28;20038;-80
2023/09/01 09:41:01;;;;;;;18.08;10.63;;;;;;;;;;5013297;28;20034;-79
2023/09/01 09:43:27;;;;;;;20.13;11.90;;;;;;;;;;5007905;28;20121;-80
2023/09/01 09:45:54;;;;;;;21.38;11.65;;;;;;;;;;5012152;28;20556;-80
2023/09/01 09:48:20;;;;;;;17.98;10.85;;;;;;;;;;5001943;28;20027;-81
2023/09/01 09:50:52;;;;;;;19.50;11.20;;;;;;;;;;4996934;28;20131;-80
2023/09/01 09:53:22;;;;;;;23.15;11.57;;;;;;;;;;4997578;28;20030;-80
2023/09/01 09:55:50;;;;;;;14.73;9.85;;;;;;;;;;5000690;28;20048;-80
2023/09/01 09:58:17;;;;;;;22.27;10.13;;;;;;;;;;4995781;28;20699;-81
2023/09/01 10:01:02;;;;;;;16.38;10.13;;;;;;;;;;4991268;28;20030;-82
2023/09/01 10:03:31;;;;;;;18.52;10.27;;;;;;;;;;4992929;28;20499;-81
2023/09/01 10:06:01;;;;;;;15.30;9.98;;;;;;;;;;4989067;28;20070;-81
2023/09/01 10:08:28;;;;;;;16.90;10.33;;;;;;;;;;4986087;28;20436;-80
2023/09/01 10:10:58;;;;;;;16.33;9.98;;;;;;;;;;4997701;28;20037;-82
2023/09/01 10:13:24;;;;;;;18.10;10.18;;;;;;;;;;4993124;28;20038;-81
2023/09/01 10:15:52;;;;;;;18.13;10.55;;;;;;;;;;4987592;28;20077;-79
2023/09/01 10:18:19;;;;;;;16.77;10.23;;;;;;;;;;5004072;28;20092;-80
2023/09/01 10:20:45;;;;;;;18.05;10.85;;;;;;;;;;4984833;28;20174;-83
2023/09/01 10:23:13;;;;;;;18.75;10.85;;;;;;;;;;4990124;28;20109;-82
2023/09/01 10:25:39;;;;;;;17.75;11.27;;;;;;;;;;4990488;28;20093;-81
2023/09/01 10:28:05;;;;;;;19.42;10.27;;;;;;;;;;4981805;28;20037;-82
2023/09/01 10:30:32;;;;;;;15.27;9.85;;;;;;;;;;4989561;28;20026;-82
2023/09/01 10:33:04;;;;;;;14.90;9.95;;;;;;;;;;5009441;28;20073;-82
2023/09/01 10:35:37;;;;;;;18.00;10.13;;;;;;;;;;5027757;28;20156;-82
2023/09/01 10:38:12;;;;;;;15.73;9.85;;;;;;;;;;5017101;28;20100;-83
2023/09/01 10:40:39;;;;;;;19.40;10.02;;;;;;;;;;5019060;28;20026;-80
2023/09/01 10:43:09;;;;;;;21.95;10.10;;;;;;;;;;5020242;28;20037;-82
2023/09/01 10:45:36;;;;;;;22.77;12.10;;;;;;;;;;5030641;28;20046;-84
2023/09/01 10:48:04;;;;;;;18.98;10.70;;;;;;;;;;5042017;28;20147;-81
2023/09/01 10:50:34;;;;;;;20.75;11.90;;;;;;;;;;5022716;28;20084;-82
2023/09/01 10:53:19;;;;;;;18.55;10.45;;;;;;;;;;4999820;28;20034;-81
2023/09/01 10:56:04;;;;;;;16.83;10.48;;;;;;;;;;5028753;28;20091;-79
2023/09/01 10:58:49;;;;;;;20.45;11.45;;;;;;;;;;4997832;28;20021;-81
2023/09/01 11:01:26;;;;;;;21.45;11.52;;;;;;;;;;5000022;28;20045;-81
2023/09/01 11:03:52;;;;;;;20.48;11.60;;;;;;;;;;4994031;28;20033;-82
2023/09/01 11:06:20;;;;;;;21.55;11.82;;;;;;;;;;4992345;28;20061;-81
2023/09/01 11:09:01;;;;;;;20.95;11.15;;;;;;;;;;5017286;28;20117;-80
2023/09/01 11:11:28;;;;;;;17.48;10.77;;;;;;;;;;5020861;28;20133;-83
2023/09/01 11:13:55;;;;;;;21.15;11.30;;;;;;;;;;4989512;28;20030;-81
2023/09/01 11:16:21;;;;;;;36.58;13.30;;;;;;;;;;5016841;28;20034;-82
2023/09/01 11:19:06;;;;;;;21.83;12.48;;;;;;;;;;5019448;28;20021;-84
2023/09/01 11:21:32;;;;;;;20.92;12.95;;;;;;;;;;5018285;28;20030;-82
2023/09/01 11:24:03;;;;;;;21.95;13.23;;;;;;;;;;4981156;28;20052;-82
2023/09/01 11:26:33;;;;;;;22.73;12.63;;;;;;;;;;5020781;28;20041;-80
2023/09/01 11:29:00;;;;;;;24.20;12.68;;;;;;;;;;4989480;28;20026;-80
2023/09/01 11:31:38;;;;;;;23.83;12.10;;;;;;;;;;5018612;28;20091;-80
2023/09/01 11:34:05;;;;;;;17.63;11.10;;;;;;;;;;5017584;28;20521;-80
2023/09/01 11:36:31;;;;;;;17.95;11.75;;;;;;;;;;4991378;28;20558;-79
2023/09/01 11:38:58;;;;;;;18.13;10.95;;;;;;;;;;5005170;28;20479;-82
2023/09/01 11:41:26;;;;;;;18.48;11.10;;;;;;;;;;4991599;28;20172;-80
2023/09/01 11:43:54;;;;;;;19.42;11.23;;;;;;;;;;5024141;28;20013;-81
2023/09/01 11:46:33;;;;;;;17.98;11.68;;;;;;;;;;5031326;28;20167;-82
2023/09/01 11:49:00;;;;;;;18.20;11.68;;;;;;;;;;5043589;28;20088;-79
2023/09/01 11:51:40;;;;;;;17.10;11.20;;;;;;;;;;5009301;28;20106;-81
2023/09/01 11:54:06;;;;;;;22.83;11.32;;;;;;;;;;5010442;28;20027;-79
2023/09/01 11:56:33;;;;;;;15.00;10.23;;;;;;;;;;4998427;28;20037;-82
2023/09/01 11:59:00;;;;;;;16.77;10.90;;;;;;;;;;5006849;28;20061;-80
2023/09/01 12:01:31;;;;;;;20.25;11.32;;;;;;;;;;5011622;28;20084;-81
2023/09/01 12:04:05;;;;;;;19.20;11.32;;;;;;;;;;5009524;28;20034;-80
2023/09/01 12:06:31;;;;;;;14.30;10.63;;;;;;;;;;4999021;28;20053;-80
2023/09/01 12:09:11;;;;;;;13.32;10.57;;;;;;;;;;5009870;28;20037;-80
2023/09/01 12:11:52;;;;;;;19.65;10.73;;;;;;;;;;5007666;28;20057;-81
2023/09/01 12:14:22;;;;;;;17.80;10.88;;;;;;;;;;4997962;28;20065;-81
2023/09/01 12:16:53;;;;;;;17.30;10.50;;;;;;;;;;5005177;28;20470;-83
2023/09/01 12:19:21;;;;;;;14.93;10.88;;;;;;;;;;4997621;28;20104;-81
2023/09/01 12:21:47;;;;;;;18.35;9.98;;;;;;;;;;5010234;28;20022;-81
2023/09/01 12:24:13;;;;;;;19.65;10.43;;;;;;;;;;5009393;28;20259;-82
2023/09/01 12:26:40;;;;;;;14.35;10.13;;;;;;;;;;5015119;28;20050;-82
2023/09/01 12:29:06;;;;;;;16.88;10.38;;;;;;;;;;4999604;28;20033;-80
2023/09/01 12:31:33;;;;;;;18.83;10.98;;;;;;;;;;5031793;28;20029;-81
2023/09/01 12:33:59;;;;;;;14.05;10.07;;;;;;;;;;5000996;28;20038;-81
2023/09/01 12:36:27;;;;;;;13.98;9.95;;;;;;;;;;5001200;28;20064;-80
2023/09/01 12:38:53;;;;;;;15.23;9.85;;;;;;;;;;5013318;28;20037;-81
2023/09/01 12:41:19;;;;;;;14.23;9.73;;;;;;;;;;5015782;28;20092;-81
2023/09/01 12:43:46;;;;;;;13.10;9.57;;;;;;;;;;5017787;28;20030;-81
2023/09/01 12:46:12;;;;;;;17.58;9.57;;;;;;;;;;5009109;28;20033;-80
2023/09/01 12:48:39;;;;;;;14.10;9.90;;;;;;;;;;5033309;28;20041;-80
2023/09/01 12:51:05;;;;;;;17.48;9.88;;;;;;;;;;5017652;28;20025;-80
2023/09/01 12:53:33;;;;;;;14.23;9.60;;;;;;;;;;5000087;28;20030;-79
2023/09/01 12:55:59;;;;;;;14.77;9.10;;;;;;;;;;5031989;28;20105;-79
2023/09/01 12:58:29;;;;;;;14.20;9.48;;;;;;;;;;5024869;28;20098;-81
2023/09/01 13:00:56;;;;;;;12.85;8.70;;;;;;;;;;5018733;28;20038;-81
2023/09/01 13:03:22;;;;;;;15.15;8.60;;;;;;;;;;5013734;28;20531;-81
2023/09/01 13:05:49;;;;;;;12.02;9.15;;;;;;;;;;4997485;28;20400;-82
2023/09/01 13:08:16;;;;;;;12.45;9.00;;;;;;;;;;5015578;28;20045;-80
2023/09/01 13:10:42;;;;;;;12.30;8.63;;;;;;;;;;5014971;28;20514;-82
2023/09/01 13:13:09;;;;;;;12.18;9.02;;;;;;;;;;4997395;28;20038;-81
2023/09/01 13:15:35;;;;;;;13.52;10.07;;;;;;;;;;5015440;28;20031;-80
2023/09/01 13:18:01;;;;;;;12.05;8.88;;;;;;;;;;4984114;28;20046;-82
2023/09/01 13:20:27;;;;;;;14.90;9.10;;;;;;;;;;4995824;28;20158;-81
2023/09/01 13:22:55;;;;;;;16.35;9.80;;;;;;;;;;4994909;28;20034;-80
2023/09/01 13:25:21;;;;;;;13.25;9.60;;;;;;;;;;4995478;28;20030;-82
2023/09/01 13:27:47;;;;;;;12.38;9.35;;;;;;;;;;4999635;28;20026;-81
2023/09/01 13:30:13;;;;;;;13.95;9.60;;;;;;;;;;5014075;28;20033;-80
2023/09/01 13:32:59;;;;;;;14.43;9.77;;;;;;;;;;5013461;28;20026;-81
2023/09/01 13:35:25;;;;;;;12.80;9.65;;;;;;;;;;5018989;28;20041;-79
2023/09/01 13:37:51;;;;;;;15.43;10.07;;;;;;;;;;5014926;28;20030;-81
2023/09/01 13:40:17;;;;;;;13.18;9.85;;;;;;;;;;4981871;28;20041;-79
2023/09/01 13:42:44;;;;;;;14.75;9.65;;;;;;;;;;5001129;28;20027;-80
2023/09/01 13:45:11;;;;;;;16.13;9.80;;;;;;;;;;5013616;28;20080;-80
2023/09/01 13:47:38;;;;;;;12.18;9.57;;;;;;;;;;4999981;28;20347;-79
2023/09/01 13:50:05;;;;;;;14.32;9.38;;;;;;;;;;5005979;28;20037;-79
2023/09/01 13:52:31;;;;;;;15.00;9.75;;;;;;;;;;5028695;28;20141;-80
2023/09/01 13:54:57;;;;;;;14.15;10.05;;;;;;;;;;5018765;28;20029;-83
2023/09/01 13:57:24;;;;;;;14.93;9.85;;;;;;;;;;5017120;28;20033;-81
2023/09/01 13:59:50;;;;;;;18.90;10.10;;;;;;;;;;5025331;28;20030;-80
2023/09/01 14:02:17;;;;;;;14.60;9.95;;;;;;;;;;5011405;28;20448;-81
2023/09/01 14:04:43;;;;;;;15.80;10.57;;;;;;;;;;4999957;28;20029;-79
2023/09/01 14:07:09;;;;;;;11.07;9.70;;;;;;;;;;5015298;28;20053;-80
2023/09/01 14:09:35;;;;;;;11.15;9.35;;;;;;;;;;5014766;28;20026;-81
2023/09/01 14:12:02;;;;;;;15.07;10.07;;;;;;;;;;5012893;28;20068;-79
2023/09/01 14:14:29;;;;;;;14.75;10.15;;;;;;;;;;5010998;28;20040;-80
2023/09/01 14:16:56;;;;;;;13.07;9.63;;;;;;;;;;5009479;28;20100;-79
2023/09/01 14:19:22;;;;;;;13.70;9.73;;;;;;;;;;5009086;28;20042;-80
2023/09/01 14:21:48;;;;;;;13.40;9.18;;;;;;;;;;4992229;28;20471;-82
2023/09/01 14:24:14;;;;;;;13.25;9.57;;;;;;;;;;5008108;28;20042;-82